Terminal Aerodrome Forecast
Issued by NWS

Home | Current Version | Previous Version | Text Only | Print | Product List | Glossary On
Versions: 1 2 3 4 5 6 7 8 9 10 11 12 13 14 15 16 17 18 19 20 21 22 23 24
000
FTUS41 KPBZ 311700
TAFDUJ
TAF
KDUJ 311730Z 3118/0118 24010KT P6SM BKN025
     FM312000 23010KT P6SM BKN035
     FM010700 VRB03KT 3SM BR SKC
     FM011400 22005KT P6SM BKN080=

USA.gov is the U.S. government's official web portal to all federal, state and local government web resources and services.